Time;durP1;ratioP1;P1;durP2;ratioP2;P2;SDS_P1;SDS_P2;PMS_P1;PMS_P2;Temp;Humidity;BMP_temperature;BMP_pressure;BME280_temperature;BME280_humidity;BME280_pressure;Samples;Min_cycle;Max_cycle;Signal;HPM_P1;HPM_P2
2023/05/28 00:01:15;;;;;;;8.77;4.27;;;;;;;14.39;72.49;98254.47;5095612;28;20226;-77
2023/05/28 00:03:41;;;;;;;9.03;4.70;;;;;;;14.36;73.00;98252.28;5097192;28;20200;-77
2023/05/28 00:06:08;;;;;;;9.23;4.57;;;;;;;14.31;73.70;98246.03;5097363;28;20230;-77
2023/05/28 00:08:34;;;;;;;7.90;4.90;;;;;;;14.18;75.25;98252.44;5097045;28;20211;-77
2023/05/28 00:11:00;;;;;;;8.60;4.50;;;;;;;14.14;74.68;98251.28;5097001;28;20210;-77
2023/05/28 00:13:28;;;;;;;8.43;4.50;;;;;;;14.08;76.00;98252.22;5096986;28;20207;-77
2023/05/28 00:15:55;;;;;;;8.40;4.53;;;;;;;14.27;74.77;98237.66;5096527;28;20232;-77
2023/05/28 00:18:21;;;;;;;7.40;4.57;;;;;;;14.26;74.49;98233.38;5096533;28;20651;-77
2023/05/28 00:20:49;;;;;;;11.30;4.30;;;;;;;14.25;74.04;98237.06;5096682;28;20304;-77
2023/05/28 00:23:16;;;;;;;12.07;4.70;;;;;;;14.07;76.18;98241.75;5096714;28;20269;-77
2023/05/28 00:25:42;;;;;;;10.07;4.63;;;;;;;14.11;76.27;98238.38;5096631;28;20227;-77
2023/05/28 00:28:09;;;;;;;8.57;4.60;;;;;;;13.95;76.80;98236.44;5096727;28;20208;-77
2023/05/28 00:30:35;;;;;;;9.73;4.17;;;;;;;13.91;75.76;98229.94;5096348;28;20230;-77
2023/05/28 00:33:02;;;;;;;8.37;4.70;;;;;;;13.83;77.12;98238.31;5096667;28;20206;-77
2023/05/28 00:35:28;;;;;;;7.63;4.43;;;;;;;13.89;76.84;98224.00;5096284;28;20232;-77
2023/05/28 00:37:54;;;;;;;7.63;4.20;;;;;;;13.83;77.13;98234.84;5096628;28;20218;-77
2023/05/28 00:40:21;;;;;;;9.80;4.40;;;;;;;13.86;77.33;98227.16;5096351;28;20210;-77
2023/05/28 00:42:50;;;;;;;7.03;4.07;;;;;;;13.84;76.94;98223.09;5096280;28;20565;-77
2023/05/28 00:45:18;;;;;;;6.33;4.30;;;;;;;13.80;77.62;98222.75;5095958;28;20253;-77
2023/05/28 00:47:45;;;;;;;6.67;4.43;;;;;;;13.79;75.81;98223.00;5096220;28;20204;-77
2023/05/28 00:50:12;;;;;;;6.50;4.10;;;;;;;13.75;77.62;98232.53;5096441;28;20215;-77
2023/05/28 00:52:39;;;;;;;9.07;4.53;;;;;;;13.78;77.34;98222.19;5095977;28;20704;-77
2023/05/28 00:55:16;;;;;;;10.03;4.80;;;;;;;13.80;77.34;98221.94;5096461;28;20208;-77
2023/05/28 00:57:44;;;;;;;7.27;4.10;;;;;;;14.02;75.03;98228.31;5096117;28;20198;-77
2023/05/28 01:00:11;;;;;;;8.40;4.13;;;;;;;13.90;76.15;98222.97;5095868;28;20208;-77
2023/05/28 01:02:38;;;;;;;7.40;4.30;;;;;;;14.07;74.88;98215.81;5096005;28;20243;-77
2023/05/28 01:09:22;;;;;;;10.00;4.23;;;;;;;13.78;76.50;98221.34;5096250;28;20216;-77
2023/05/28 01:11:51;;;;;;;9.50;4.50;;;;;;;13.73;77.12;98221.25;5094778;28;20188;-77
2023/05/28 01:14:18;;;;;;;8.13;4.60;;;;;;;13.81;76.93;98218.22;5095542;28;20212;-77
2023/05/28 01:16:46;;;;;;;8.10;4.23;;;;;;;13.76;76.16;98216.28;5095272;28;20232;-77
2023/05/28 01:19:18;;;;;;;6.33;4.13;;;;;;;13.76;76.84;98221.63;5095627;28;20673;-77
2023/05/28 01:21:46;;;;;;;8.63;4.20;;;;;;;13.65;76.61;98216.28;5077267;28;20658;-77
2023/05/28 01:24:13;;;;;;;7.80;4.03;;;;;;;13.64;77.83;98215.47;5095463;28;20204;-77
2023/05/28 01:26:43;;;;;;;12.13;4.97;;;;;;;13.60;77.36;98221.50;5095416;28;20289;-77
2023/05/28 01:29:17;;;;;;;10.03;4.63;;;;;;;13.61;77.40;98215.13;5095436;28;20204;-77
2023/05/28 01:31:44;;;;;;;8.03;4.47;;;;;;;13.50;78.23;98216.75;5095350;28;20209;-77
2023/05/28 01:34:11;;;;;;;6.63;4.67;;;;;;;13.37;79.50;98208.97;5095284;28;20200;-77
2023/05/28 01:36:45;;;;;;;10.37;4.53;;;;;;;13.42;79.94;98211.75;5094981;28;20219;-77
2023/05/28 01:39:16;;;;;;;9.93;4.70;;;;;;;13.37;79.81;98214.31;5094821;28;20672;-77
2023/05/28 01:41:45;;;;;;;7.40;4.30;;;;;;;13.41;77.79;98212.00;5095191;28;20192;-77
2023/05/28 01:44:14;;;;;;;10.77;4.63;;;;;;;13.35;78.37;98211.09;5094788;28;20698;-77
2023/05/28 01:46:44;;;;;;;6.70;4.00;;;;;;;13.22;78.95;98203.31;5094912;28;20220;-77
2023/05/28 01:49:11;;;;;;;7.37;4.40;;;;;;;13.31;78.67;98212.59;5094917;28;20208;-77
2023/05/28 01:51:38;;;;;;;7.77;4.37;;;;;;;13.18;79.16;98204.81;5095049;28;20219;-77
2023/05/28 01:54:04;;;;;;;9.00;4.30;;;;;;;13.32;78.61;98208.03;5095146;28;20210;-77
2023/05/28 01:56:30;;;;;;;8.20;4.47;;;;;;;13.18;79.33;98203.97;5094441;28;20626;-77
2023/05/28 01:58:57;;;;;;;6.10;3.93;;;;;;;13.22;79.90;98211.31;5094850;28;20584;-77
2023/05/28 02:01:35;;;;;;;8.47;4.10;;;;;;;13.20;78.93;98205.38;5094543;28;20218;-77
2023/05/28 02:04:02;;;;;;;7.47;4.57;;;;;;;13.18;79.03;98210.16;5094374;28;20558;-77
2023/05/28 02:06:31;;;;;;;9.70;4.57;;;;;;;13.32;78.51;98208.88;5094591;28;20572;-77
2023/05/28 02:08:58;;;;;;;8.13;4.13;;;;;;;13.24;79.24;98209.22;5094603;28;20203;-77
2023/05/28 02:11:25;;;;;;;9.00;4.17;;;;;;;13.18;80.38;98203.97;5094541;28;20576;-77
2023/05/28 02:13:52;;;;;;;10.40;4.17;;;;;;;13.17;79.59;98210.38;5094458;28;20207;-77
2023/05/28 02:16:18;;;;;;;7.97;4.17;;;;;;;13.12;81.18;98195.03;5093954;28;20271;-77
2023/05/28 02:18:46;;;;;;;8.83;4.40;;;;;;;13.13;81.34;98199.34;5094656;28;20560;-77
2023/05/28 02:21:13;;;;;;;8.60;4.07;;;;;;;13.05;81.17;98197.00;5094443;28;20203;-77
2023/05/28 02:23:47;;;;;;;7.03;4.40;;;;;;;12.97;82.35;98201.88;5093989;28;20207;-77
2023/05/28 02:26:13;;;;;;;7.73;4.33;;;;;;;12.80;81.97;98193.69;5094180;28;20223;-77
2023/05/28 02:28:42;;;;;;;9.53;4.60;;;;;;;12.85;82.01;98199.16;5094279;28;20209;-77
2023/05/28 02:31:09;;;;;;;7.63;4.50;;;;;;;12.87;82.10;98189.06;5094007;28;20305;-77
2023/05/28 02:33:35;;;;;;;7.93;4.27;;;;;;;12.76;82.08;98197.88;5094321;28;20210;-77
2023/05/28 02:36:02;;;;;;;6.43;4.13;;;;;;;12.58;83.58;98191.78;5093832;28;20590;-77
2023/05/28 02:38:28;;;;;;;8.70;4.60;;;;;;;12.62;84.04;98188.44;5094366;28;20210;-77
2023/05/28 02:40:54;;;;;;;6.97;4.90;;;;;;;12.43;85.28;98184.22;5094147;28;20217;-77
2023/05/28 02:43:21;;;;;;;10.40;4.73;;;;;;;12.47;87.04;98180.03;5094189;28;20214;-77
2023/05/28 02:45:47;;;;;;;8.40;4.13;;;;;;;12.47;84.78;98185.38;5094018;28;20250;-77
2023/05/28 02:48:13;;;;;;;7.77;4.37;;;;;;;12.45;85.65;98192.81;5093609;28;20218;-77
2023/05/28 02:50:40;;;;;;;8.57;4.80;;;;;;;12.50;86.27;98187.59;5093937;28;20206;-77
2023/05/28 02:53:06;;;;;;;6.03;4.00;;;;;;;12.46;85.64;98186.44;5093777;28;20203;-77
2023/05/28 02:55:32;;;;;;;6.43;4.50;;;;;;;12.36;86.15;98186.16;5094022;28;20226;-77
2023/05/28 02:57:59;;;;;;;7.03;4.60;;;;;;;12.35;87.61;98197.06;5093732;28;20223;-77
2023/05/28 03:00:25;;;;;;;8.67;4.53;;;;;;;12.40;87.02;98191.84;5093896;28;20203;-77
2023/05/28 03:02:52;;;;;;;7.03;4.47;;;;;;;12.29;87.39;98197.97;5093823;28;20208;-77
2023/05/28 03:05:18;;;;;;;6.70;4.63;;;;;;;12.22;88.87;98194.56;5093635;28;20676;-77
2023/05/28 03:07:44;;;;;;;5.60;4.00;;;;;;;12.17;89.54;98197.91;5093677;28;20225;-77
2023/05/28 03:10:11;;;;;;;8.40;4.77;;;;;;;12.23;88.50;98202.34;5093721;28;20204;-77
2023/05/28 03:12:37;;;;;;;10.73;5.20;;;;;;;12.14;88.28;98201.03;5093647;28;20203;-77
2023/05/28 03:15:04;;;;;;;7.73;4.83;;;;;;;12.11;90.02;98198.81;5093720;28;20203;-77
2023/05/28 03:17:30;;;;;;;8.23;4.50;;;;;;;12.13;89.74;98204.75;5093166;28;20226;-77
2023/05/28 03:19:57;;;;;;;6.80;4.40;;;;;;;11.97;91.60;98204.50;5093607;28;20207;-77
2023/05/28 03:22:23;;;;;;;9.03;4.43;;;;;;;11.93;92.24;98201.50;5093226;28;20207;-77
2023/05/28 03:24:49;;;;;;;9.40;4.73;;;;;;;11.97;90.96;98208.00;5093503;28;20240;-77
2023/05/28 03:27:16;;;;;;;10.83;4.63;;;;;;;12.02;90.97;98207.34;5093492;28;20227;-77
2023/05/28 03:29:42;;;;;;;8.50;4.60;;;;;;;11.78;93.28;98209.06;5093880;28;20213;-77
2023/05/28 03:32:08;;;;;;;8.90;4.40;;;;;;;11.69;94.05;98205.06;5094190;28;20217;-77
2023/05/28 03:34:35;;;;;;;8.17;4.73;;;;;;;11.59;94.86;98204.75;5093877;28;20205;-77
2023/05/28 03:37:03;;;;;;;9.83;4.67;;;;;;;11.61;95.32;98208.03;5096823;28;20229;-77
2023/05/28 03:39:29;;;;;;;9.47;4.93;;;;;;;11.75;94.49;98206.84;5097520;28;20229;-77
2023/05/28 03:41:55;;;;;;;8.87;4.30;;;;;;;11.78;94.85;98202.91;5097371;28;20239;-77
2023/05/28 03:44:21;;;;;;;7.43;4.70;;;;;;;11.74;94.73;98207.03;5097386;28;20201;-77
2023/05/28 03:46:48;;;;;;;7.83;4.53;;;;;;;11.82;94.97;98207.59;5097235;28;20232;-77
2023/05/28 03:49:14;;;;;;;8.70;4.90;;;;;;;11.79;95.04;98205.34;5097266;28;20541;-77
2023/05/28 03:51:40;;;;;;;9.73;4.77;;;;;;;11.90;96.12;98198.47;5097211;28;20205;-77
2023/05/28 03:54:07;;;;;;;9.70;4.50;;;;;;;11.87;97.03;98199.72;5097174;28;20207;-77
2023/05/28 03:56:35;;;;;;;10.33;4.70;;;;;;;11.93;94.24;98206.03;5096979;28;20224;-77
2023/05/28 03:59:02;;;;;;;10.33;4.53;;;;;;;11.74;95.72;98207.88;5097033;28;20204;-77
2023/05/28 04:01:28;;;;;;;7.30;4.37;;;;;;;11.83;95.18;98206.53;5097090;28;20206;-77
2023/05/28 04:03:55;;;;;;;8.13;4.60;;;;;;;11.88;94.35;98204.03;5096613;28;20204;-77
2023/05/28 04:06:22;;;;;;;7.07;4.70;;;;;;;11.94;94.10;98199.66;5096871;28;20220;-77
2023/05/28 04:08:49;;;;;;;7.53;5.00;;;;;;;11.93;94.79;98201.50;5096737;28;20210;-77
2023/05/28 04:11:15;;;;;;;10.53;5.10;;;;;;;12.09;92.51;98206.22;5096743;28;20209;-77
2023/05/28 04:13:41;;;;;;;9.70;4.63;;;;;;;12.11;92.93;98198.00;5096875;28;20211;-77
2023/05/28 04:16:09;;;;;;;6.30;4.53;;;;;;;12.05;94.71;98197.03;5096250;28;20233;-77
2023/05/28 04:18:35;;;;;;;10.47;4.30;;;;;;;12.09;93.96;98198.22;5095677;28;20195;-77
2023/05/28 04:21:01;;;;;;;7.10;4.37;;;;;;;12.21;92.16;98195.63;5095809;28;20210;-77
2023/05/28 04:23:28;;;;;;;9.77;5.10;;;;;;;12.29;91.06;98193.44;5095485;28;20205;-77
2023/05/28 04:25:56;;;;;;;9.33;4.90;;;;;;;12.14;93.73;98198.38;5095784;28;20233;-77
2023/05/28 04:28:24;;;;;;;12.27;4.63;;;;;;;12.10;94.08;98202.50;5095339;28;20285;-77
2023/05/28 04:30:51;;;;;;;7.47;4.87;;;;;;;12.16;96.38;98214.13;5095444;28;20211;-77
2023/05/28 04:33:20;;;;;;;8.90;5.00;;;;;;;12.16;94.76;98212.25;5095240;28;20673;-77
2023/05/28 04:35:47;;;;;;;8.43;4.53;;;;;;;12.17;94.61;98205.88;5095108;28;20253;-77
2023/05/28 04:38:13;;;;;;;6.00;4.53;;;;;;;12.25;94.24;98205.59;5094973;28;20222;-77
2023/05/28 04:40:40;;;;;;;9.70;4.10;;;;;;;12.36;92.50;98212.84;5095058;28;20200;-77
2023/05/28 04:43:06;;;;;;;8.70;4.70;;;;;;;12.40;90.96;98211.34;5095152;28;20244;-77
2023/05/28 04:45:33;;;;;;;7.33;4.30;;;;;;;12.48;89.07;98204.88;5095047;28;20228;-77
2023/05/28 04:48:01;;;;;;;6.97;4.60;;;;;;;12.56;88.55;98207.19;5094777;28;20207;-77
2023/05/28 04:50:27;;;;;;;7.30;4.87;;;;;;;12.71;86.81;98205.72;5094987;28;20218;-77
2023/05/28 04:52:53;;;;;;;8.27;4.07;;;;;;;12.72;88.11;98210.06;5095273;28;20213;-77
2023/05/28 04:55:20;;;;;;;9.87;4.33;;;;;;;12.78;85.61;98206.44;5094633;28;20209;-77
2023/05/28 04:57:46;;;;;;;8.07;4.10;;;;;;;12.84;88.65;98207.41;5094987;28;20222;-77
2023/05/28 05:00:13;;;;;;;7.20;4.27;;;;;;;12.92;84.11;98210.53;5094689;28;20677;-77
2023/05/28 05:02:41;;;;;;;9.50;5.47;;;;;;;13.40;81.04;98215.72;5094572;28;20753;-77
2023/05/28 05:05:08;;;;;;;10.60;4.33;;;;;;;14.17;75.36;98224.06;5094796;28;20231;-77
2023/05/28 05:07:38;;;;;;;6.20;4.03;;;;;;;14.49;72.71;98211.88;5094899;28;20202;-77
2023/05/28 05:10:09;;;;;;;7.33;4.10;;;;;;;15.04;68.12;98214.69;5094746;28;20210;-77
2023/05/28 05:12:35;;;;;;;6.87;4.53;;;;;;;14.65;69.18;98224.47;5094616;28;20545;-77
2023/05/28 05:15:02;;;;;;;6.30;4.30;;;;;;;14.49;70.09;98219.09;5094831;28;20204;-77
2023/05/28 05:17:28;;;;;;;8.23;4.60;;;;;;;14.74;69.45;98217.69;5058555;28;1058473;-77
2023/05/28 05:19:55;;;;;;;11.97;5.00;;;;;;;15.41;65.40;98214.00;5095945;28;20211;-77
2023/05/28 05:22:21;;;;;;;9.10;4.80;;;;;;;15.77;64.32;98216.13;5095964;28;20203;-77
2023/05/28 05:24:48;;;;;;;6.57;4.20;;;;;;;15.67;64.03;98220.53;5095454;28;20567;-77
2023/05/28 05:27:14;;;;;;;7.13;4.60;;;;;;;14.72;69.09;98210.94;5096641;28;20703;-77
2023/05/28 05:29:42;;;;;;;6.63;4.67;;;;;;;14.75;68.62;98205.13;5095925;28;20203;-77
2023/05/28 05:32:10;;;;;;;7.37;4.80;;;;;;;14.37;70.87;98216.47;5095401;28;20670;-77
2023/05/28 05:34:37;;;;;;;7.93;4.53;;;;;;;14.27;71.54;98210.94;5095602;28;20574;-77
2023/05/28 05:37:04;;;;;;;9.23;4.80;;;;;;;14.05;71.99;98219.78;5096362;28;20686;-78
2023/05/28 05:39:30;;;;;;;8.90;4.57;;;;;;;13.96;72.70;98216.69;5097508;28;20204;-78
2023/05/28 05:41:57;;;;;;;9.47;4.50;;;;;;;14.08;72.99;98224.66;5095376;28;20216;-77
2023/05/28 05:44:23;;;;;;;6.23;4.47;;;;;;;14.33;73.74;98209.16;5095594;28;20671;-77
2023/05/28 05:46:49;;;;;;;7.03;4.33;;;;;;;14.54;72.46;98219.19;5095218;28;20223;-77
2023/05/28 05:49:15;;;;;;;9.10;4.70;;;;;;;14.60;75.28;98216.34;5095146;28;20593;-77
2023/05/28 05:51:42;;;;;;;8.93;5.10;;;;;;;14.73;74.58;98209.88;5095235;28;20200;-77
2023/05/28 05:54:08;;;;;;;10.13;5.10;;;;;;;15.11;70.42;98213.47;5095166;28;20200;-77
2023/05/28 05:56:34;;;;;;;6.20;4.33;;;;;;;15.10;70.82;98219.91;5094842;28;20220;-77
2023/05/28 05:59:01;;;;;;;9.93;4.90;;;;;;;15.15;70.75;98205.78;5094968;28;20670;-77
2023/05/28 06:01:29;;;;;;;8.33;5.23;;;;;;;15.18;73.42;98218.66;5095040;28;20203;-77
2023/05/28 06:03:56;;;;;;;8.80;5.10;;;;;;;15.11;71.76;98218.84;5094817;28;20251;-77
2023/05/28 06:06:22;;;;;;;7.43;4.97;;;;;;;15.44;72.46;98224.22;5094889;28;20702;-77
2023/05/28 06:08:49;;;;;;;8.40;4.90;;;;;;;15.45;73.14;98220.47;5095034;28;20629;-77
2023/05/28 06:11:15;;;;;;;9.77;4.80;;;;;;;15.55;70.64;98220.63;5095402;28;20210;-78
2023/05/28 06:13:42;;;;;;;9.03;4.90;;;;;;;15.66;70.14;98225.09;5095405;28;20291;-77
2023/05/28 06:16:08;;;;;;;8.03;4.57;;;;;;;15.65;67.38;98222.66;5095646;28;20236;-78
2023/05/28 06:18:35;;;;;;;7.43;4.53;;;;;;;15.77;67.99;98220.66;5094535;28;20571;-77
2023/05/28 06:21:03;;;;;;;9.53;4.83;;;;;;;15.75;69.14;98222.78;5094979;28;20628;-77
2023/05/28 06:23:29;;;;;;;9.00;4.27;;;;;;;15.81;66.95;98230.66;5094882;28;20256;-77
2023/05/28 06:25:56;;;;;;;6.67;4.53;;;;;;;16.08;61.34;98228.84;5094488;28;20710;-78
2023/05/28 06:28:22;;;;;;;7.87;4.90;;;;;;;15.86;62.99;98229.88;5094906;28;20207;-77
2023/05/28 06:30:49;;;;;;;6.53;4.40;;;;;;;16.01;63.04;98230.91;5095083;28;20207;-77
2023/05/28 06:33:15;;;;;;;6.70;4.63;;;;;;;16.14;63.26;98233.22;5094931;28;20231;-77
2023/05/28 06:35:42;;;;;;;6.53;4.00;;;;;;;16.16;63.11;98224.91;5095136;28;20307;-77
2023/05/28 06:38:08;;;;;;;9.43;5.10;;;;;;;16.26;61.80;98220.50;5095453;28;20223;-77
2023/05/28 06:40:34;;;;;;;7.57;4.80;;;;;;;16.32;65.22;98224.84;5094444;28;20574;-77
2023/05/28 06:43:01;;;;;;;8.47;5.03;;;;;;;16.24;64.40;98222.59;5094412;28;20207;-77
2023/05/28 06:45:27;;;;;;;9.57;4.53;;;;;;;16.22;63.56;98232.78;5094769;28;20231;-77
2023/05/28 06:47:54;;;;;;;9.60;4.80;;;;;;;16.02;62.73;98229.84;5095019;28;20211;-77
2023/05/28 06:50:20;;;;;;;10.27;4.87;;;;;;;16.27;63.20;98230.16;5095900;28;20575;-78
2023/05/28 06:52:47;;;;;;;7.07;5.00;;;;;;;16.35;63.83;98232.41;5096006;28;20208;-77
2023/05/28 06:55:13;;;;;;;5.83;4.27;;;;;;;16.64;60.96;98231.13;5095338;28;20210;-78
2023/05/28 06:57:39;;;;;;;7.03;4.43;;;;;;;16.65;59.41;98232.75;5096491;28;20227;-77
2023/05/28 07:00:10;;;;;;;6.60;4.20;;;;;;;16.65;61.01;98235.44;5095550;28;20208;-77
2023/05/28 07:02:37;;;;;;;6.93;4.20;;;;;;;16.60;59.26;98240.75;5096002;28;20188;-77
2023/05/28 07:05:04;;;;;;;7.23;3.90;;;;;;;16.61;58.28;98226.25;5094598;28;20204;-77
2023/05/28 07:07:31;;;;;;;10.07;4.63;;;;;;;16.68;58.29;98234.94;5094625;28;20204;-77
2023/05/28 07:09:57;;;;;;;6.50;4.23;;;;;;;16.88;59.90;98234.31;5094055;28;20207;-78
2023/05/28 07:12:24;;;;;;;7.97;4.43;;;;;;;16.87;59.28;98230.81;5095211;28;20227;-77
2023/05/28 07:14:50;;;;;;;7.40;4.03;;;;;;;17.04;57.81;98230.69;5095156;28;20207;-78
2023/05/28 07:17:17;;;;;;;7.27;3.93;;;;;;;17.04;57.98;98225.31;5095087;28;20232;-78
2023/05/28 07:19:43;;;;;;;6.40;4.37;;;;;;;16.95;57.00;98227.69;5095486;28;20243;-78
2023/05/28 07:22:09;;;;;;;8.23;4.03;;;;;;;17.20;58.25;98237.84;5095375;28;20204;-78
2023/05/28 07:24:36;;;;;;;7.53;4.27;;;;;;;17.17;58.20;98241.84;5095518;28;20584;-78
2023/05/28 07:27:02;;;;;;;10.27;4.63;;;;;;;17.01;58.78;98240.06;5094934;28;20227;-78
2023/05/28 07:29:28;;;;;;;5.97;3.97;;;;;;;17.50;57.56;98240.78;5095161;28;20203;-77
2023/05/28 07:31:55;;;;;;;6.97;4.30;;;;;;;17.51;57.62;98239.72;5095107;28;20211;-78
2023/05/28 07:34:22;;;;;;;7.77;4.10;;;;;;;17.58;56.54;98240.28;5095460;28;20283;-78
2023/05/28 07:36:48;;;;;;;6.80;4.57;;;;;;;17.93;56.37;98240.50;5095087;28;20224;-78
2023/05/28 07:39:14;;;;;;;6.63;4.33;;;;;;;17.74;56.63;98240.13;5094622;28;20275;-77
2023/05/28 07:41:41;;;;;;;8.23;4.10;;;;;;;17.86;56.83;98238.06;5095433;28;20204;-78
2023/05/28 07:44:07;;;;;;;9.10;4.30;;;;;;;18.02;56.79;98241.63;5096299;28;20200;-78
2023/05/28 07:46:35;;;;;;;8.57;4.77;;;;;;;18.06;55.71;98242.72;5095747;28;20235;-77
2023/05/28 07:49:02;;;;;;;8.43;4.50;;;;;;;18.25;55.50;98242.03;5094414;28;20699;-77
2023/05/28 07:51:28;;;;;;;8.03;4.30;;;;;;;18.27;55.46;98239.84;5094481;28;20204;-77
2023/05/28 07:53:54;;;;;;;8.53;4.17;;;;;;;18.27;54.41;98244.44;5096215;28;20204;-78
2023/05/28 07:56:22;;;;;;;7.43;4.60;;;;;;;17.85;53.73;98241.81;5094713;28;20272;-77
2023/05/28 07:58:48;;;;;;;7.37;4.53;;;;;;;17.99;54.52;98236.75;5095035;28;20220;-77
2023/05/28 08:01:14;;;;;;;4.87;3.67;;;;;;;18.41;55.10;98246.41;5095402;28;20204;-78
2023/05/28 08:03:41;;;;;;;5.93;4.00;;;;;;;18.55;52.40;98242.13;5096071;28;20211;-78
2023/05/28 08:06:08;;;;;;;10.00;4.40;;;;;;;18.49;53.56;98245.91;5094859;28;20228;-78
2023/05/28 08:08:34;;;;;;;8.13;4.20;;;;;;;18.51;52.41;98234.88;5095138;28;20287;-78
2023/05/28 08:11:01;;;;;;;7.00;4.10;;;;;;;18.64;50.78;98235.16;5096459;28;20204;-78
2023/05/28 08:13:27;;;;;;;7.43;4.17;;;;;;;18.22;51.58;98239.03;5096176;28;20681;-78
2023/05/28 08:15:53;;;;;;;8.23;4.53;;;;;;;18.49;52.50;98237.81;5096353;28;20242;-78
2023/05/28 08:18:20;;;;;;;8.87;4.47;;;;;;;18.59;51.57;98234.34;5095087;28;20220;-78
2023/05/28 08:20:46;;;;;;;8.27;4.67;;;;;;;18.71;52.11;98230.34;5095147;28;20213;-78
2023/05/28 08:23:12;;;;;;;8.93;4.33;;;;;;;18.96;51.96;98224.19;5099510;28;20200;-78
2023/05/28 08:25:39;;;;;;;6.87;4.27;;;;;;;18.86;52.10;98226.88;5099017;28;20220;-77
2023/05/28 08:28:05;;;;;;;9.37;4.20;;;;;;;19.23;52.06;98220.16;5098357;28;20213;-78
2023/05/28 08:30:32;;;;;;;8.97;4.47;;;;;;;19.37;53.74;98220.44;5099723;28;20203;-77
2023/05/28 08:32:58;;;;;;;6.70;4.07;;;;;;;19.21;51.12;98213.41;5100090;28;20204;-77
2023/05/28 08:35:25;;;;;;;8.27;4.77;;;;;;;19.06;50.80;98216.94;5098003;28;20224;-77
2023/05/28 08:37:52;;;;;;;7.50;3.97;;;;;;;19.07;51.43;98217.72;5098895;28;20234;-78
2023/05/28 08:40:19;;;;;;;8.20;4.13;;;;;;;19.26;50.96;98213.44;5098810;28;20253;-78
2023/05/28 08:42:45;;;;;;;6.70;3.97;;;;;;;19.67;50.75;98211.50;5098495;28;20618;-78
2023/05/28 08:45:12;;;;;;;8.17;3.93;;;;;;;19.87;52.52;98214.13;5099917;28;20289;-78
2023/05/28 08:47:39;;;;;;;7.13;4.63;;;;;;;19.53;49.40;98208.53;5098256;28;20200;-77
2023/05/28 08:50:07;;;;;;;7.37;4.13;;;;;;;19.28;49.64;98197.81;5100342;28;20574;-78
2023/05/28 08:52:34;;;;;;;5.97;4.00;;;;;;;19.82;52.70;98197.97;5099031;28;20200;-78
2023/05/28 08:55:03;;;;;;;7.97;4.50;;;;;;;19.57;48.92;98196.13;5098848;28;20208;-78
2023/05/28 08:57:31;;;;;;;5.80;4.20;;;;;;;20.00;50.66;98189.28;5098766;28;20621;-77
2023/05/28 08:59:59;;;;;;;7.33;4.27;;;;;;;19.92;51.38;98189.84;5099521;28;20200;-78
2023/05/28 09:02:26;;;;;;;9.50;3.90;;;;;;;20.20;50.36;98195.44;5098519;28;20208;-78
2023/05/28 09:04:53;;;;;;;7.83;4.40;;;;;;;20.23;49.74;98189.50;5097384;28;20215;-77
2023/05/28 09:07:19;;;;;;;8.53;4.20;;;;;;;20.21;50.73;98183.53;5097916;28;20228;-78
2023/05/28 09:09:46;;;;;;;7.63;4.00;;;;;;;20.26;51.75;98188.13;5097740;28;20204;-77
2023/05/28 09:12:13;;;;;;;8.03;4.60;;;;;;;20.54;49.39;98179.31;5097307;28;20694;-77
2023/05/28 09:14:41;;;;;;;8.60;4.33;;;;;;;20.31;48.60;98182.69;5099109;28;20517;-78
2023/05/28 09:17:09;;;;;;;8.03;4.30;;;;;;;20.42;50.45;98165.34;5097252;28;20243;-78
2023/05/28 09:19:36;;;;;;;7.43;4.40;;;;;;;20.56;49.04;98167.16;5097733;28;20219;-78
2023/05/28 09:22:03;;;;;;;6.67;4.23;;;;;;;20.90;50.16;98168.03;5096884;28;20294;-77
2023/05/28 09:24:33;;;;;;;9.37;4.23;;;;;;;21.04;47.41;98173.59;5097728;28;20204;-78
2023/05/28 09:27:00;;;;;;;9.17;4.20;;;;;;;20.95;48.19;98162.59;5096941;28;20235;-77
2023/05/28 09:29:27;;;;;;;7.10;4.20;;;;;;;21.16;48.53;98172.13;5097059;28;20239;-78
2023/05/28 09:31:57;;;;;;;5.67;4.03;;;;;;;21.56;47.19;98173.66;5098590;28;20215;-78
2023/05/28 09:34:32;;;;;;;7.90;4.23;;;;;;;21.52;45.22;98170.72;5100172;28;20216;-77
2023/05/28 09:37:02;;;;;;;7.57;4.13;;;;;;;21.46;46.70;98173.75;5106089;28;20215;-78
2023/05/28 09:39:30;;;;;;;9.63;4.37;;;;;;;21.41;47.83;98169.22;5106500;28;20204;-78
2023/05/28 09:42:09;;;;;;;6.87;4.13;;;;;;;21.93;47.49;98154.88;5107243;28;20195;-77
2023/05/28 09:44:37;;;;;;;8.07;4.37;;;;;;;22.18;44.60;98158.06;5104707;28;20253;-78
2023/05/28 09:47:21;;;;;;;8.50;4.40;;;;;;;22.15;44.62;98163.28;5106008;28;20219;-78
2023/05/28 09:49:49;;;;;;;7.45;3.90;;;;;;;22.32;47.27;98163.56;5108531;28;20187;-78
2023/05/28 09:52:20;;;;;;;6.90;4.00;;;;;;;22.26;43.88;98159.31;5107167;28;20214;-78
2023/05/28 09:54:56;;;;;;;7.20;4.20;;;;;;;22.32;44.02;98158.16;5105273;28;20654;-78
2023/05/28 09:57:30;;;;;;;8.27;4.00;;;;;;;21.43;47.12;98150.78;5104886;28;20273;-77
2023/05/28 09:59:57;;;;;;;8.57;4.20;;;;;;;22.01;45.63;98162.34;5104685;28;20679;-77
2023/05/28 10:02:37;;;;;;;6.65;3.90;;;;;;;22.41;42.68;98159.09;5105588;28;20206;-77
2023/05/28 10:05:08;;;;;;;8.13;4.10;;;;;;;22.36;45.23;98162.72;5102670;28;20184;-77
2023/05/28 10:07:36;;;;;;;8.55;4.13;;;;;;;22.38;43.61;98168.63;5103779;28;20568;-77
2023/05/28 10:10:02;;;;;;;7.45;4.28;;;;;;;22.24;42.62;98161.53;5115907;28;20214;-77
2023/05/28 10:12:30;;;;;;;6.40;3.88;;;;;;;22.35;42.23;98157.56;5116110;28;20285;-77
2023/05/28 10:14:58;;;;;;;7.28;4.05;;;;;;;22.25;43.47;98152.31;5116367;28;20207;-78
2023/05/28 10:17:25;;;;;;;8.32;4.15;;;;;;;22.18;43.68;98149.94;5115966;28;20235;-77
2023/05/28 10:19:51;;;;;;;8.10;4.47;;;;;;;22.76;45.62;98153.22;5115597;28;20231;-77
2023/05/28 10:22:18;;;;;;;6.63;4.03;;;;;;;22.78;42.94;98159.13;5116234;28;20214;-77
2023/05/28 10:24:45;;;;;;;7.47;4.15;;;;;;;22.69;42.48;98158.19;5115472;28;20207;-77
2023/05/28 10:27:16;;;;;;;5.85;3.75;;;;;;;22.04;42.59;98151.75;5116356;28;20448;-78
2023/05/28 10:29:47;;;;;;;8.40;4.07;;;;;;;22.56;44.03;98151.59;5116517;28;20259;-77
2023/05/28 10:32:17;;;;;;;7.20;4.60;;;;;;;22.74;42.91;98160.84;5116104;28;20234;-78
2023/05/28 10:34:43;;;;;;;8.70;4.63;;;;;;;22.89;43.39;98149.75;5116725;28;20199;-78
2023/05/28 10:37:13;;;;;;;7.07;4.30;;;;;;;22.19;44.38;98156.16;5112281;28;20215;-77
2023/05/28 10:39:45;;;;;;;6.00;4.30;;;;;;;22.36;43.74;98157.28;5096882;28;20219;-77
2023/05/28 10:42:15;;;;;;;8.68;4.47;;;;;;;22.16;43.44;98154.03;5094046;28;20673;-78
2023/05/28 10:45:04;;;;;;;6.28;3.83;;;;;;;22.54;43.82;98147.56;5094989;28;20207;-78
2023/05/28 10:47:36;;;;;;;7.25;4.13;;;;;;;22.26;44.77;98154.72;5093705;28;20659;-77
2023/05/28 10:50:15;;;;;;;8.65;4.05;;;;;;;22.35;45.15;98152.97;5093336;28;20199;-77
2023/05/28 10:52:42;;;;;;;7.95;4.32;;;;;;;22.50;43.63;98150.06;5093687;28;20526;-77
2023/05/28 10:55:11;;;;;;;6.97;4.50;;;;;;;22.64;43.74;98142.00;5095482;28;20204;-78
2023/05/28 10:57:42;;;;;;;8.35;3.80;;;;;;;22.26;42.41;98145.78;5095385;28;20264;-77
2023/05/28 11:00:12;;;;;;;5.88;3.97;;;;;;;22.84;43.85;98134.34;5095462;28;20224;-77
2023/05/28 11:02:40;;;;;;;8.40;3.85;;;;;;;23.13;42.47;98131.44;5095458;28;20544;-77
2023/05/28 11:05:06;;;;;;;8.32;4.13;;;;;;;23.12;40.77;98127.94;5095804;28;20200;-77
2023/05/28 11:07:38;;;;;;;6.05;4.15;;;;;;;23.44;41.33;98124.41;5093432;28;20215;-77
2023/05/28 11:10:16;;;;;;;8.18;4.07;;;;;;;23.55;41.33;98133.97;5093748;28;20184;-77
2023/05/28 11:12:45;;;;;;;8.15;4.22;;;;;;;23.60;41.04;98136.59;5093550;28;20188;-77
2023/05/28 11:15:13;;;;;;;7.53;4.32;;;;;;;23.37;41.90;98126.69;5093311;28;20231;-77
2023/05/28 11:17:43;;;;;;;9.10;3.67;;;;;;;23.61;40.23;98124.63;5093508;28;20219;-77
2023/05/28 11:20:24;;;;;;;7.50;3.95;;;;;;;23.55;40.95;98123.09;5093003;28;20224;-77
2023/05/28 11:22:51;;;;;;;10.43;3.92;;;;;;;23.37;39.18;98124.00;5093080;28;20227;-77
2023/05/28 11:25:17;;;;;;;5.88;3.67;;;;;;;23.64;41.08;98116.69;5092714;28;20667;-77
2023/05/28 11:27:45;;;;;;;5.63;3.92;;;;;;;23.33;40.62;98120.28;5092784;28;20563;-77
2023/05/28 11:30:14;;;;;;;6.30;3.65;;;;;;;23.42;41.46;98113.84;5093237;28;20243;-77
2023/05/28 11:32:42;;;;;;;6.25;3.80;;;;;;;23.37;39.55;98113.94;5093317;28;20215;-77
2023/05/28 11:35:12;;;;;;;6.97;3.83;;;;;;;23.66;39.35;98113.69;5093367;28;20203;-77
2023/05/28 11:37:40;;;;;;;7.60;4.13;;;;;;;23.91;39.26;98121.34;5093485;28;20199;-77